createdAt,value
2023-02-25T00:00:39.107Z,28.33
2023-02-25T00:01:39.104Z,28.34
2023-02-25T00:02:39.181Z,28.33
2023-02-25T00:03:39.117Z,28.30
2023-02-25T00:04:39.078Z,28.35
2023-02-25T00:05:39.068Z,28.32
2023-02-25T00:06:39.085Z,28.36
2023-02-25T00:55:29.499Z,27.79
2023-02-25T00:56:30.467Z,27.77
2023-02-25T00:57:30.457Z,27.76
2023-02-25T00:58:30.452Z,27.76
2023-02-25T00:59:30.444Z,27.80
2023-02-25T01:00:32.651Z,27.77
2023-02-25T01:01:30.531Z,27.77
2023-02-25T01:02:30.447Z,27.73
2023-02-25T01:03:30.411Z,27.73
2023-02-25T01:04:30.398Z,27.76
2023-02-25T01:05:30.407Z,27.80
2023-02-25T01:06:30.388Z,27.74
2023-02-25T01:07:30.366Z,27.76
2023-02-25T01:08:30.385Z,27.77
2023-02-25T01:09:30.361Z,27.80
2023-02-25T01:10:30.340Z,27.79
2023-02-25T01:11:30.372Z,27.73
2023-02-25T01:12:30.322Z,27.79
2023-02-25T01:13:30.356Z,27.75
2023-02-25T01:14:30.308Z,27.77
2023-02-25T01:15:30.395Z,27.77
2023-02-25T01:16:30.363Z,27.76
2023-02-25T01:17:30.287Z,27.74
2023-02-25T01:18:30.276Z,27.76
2023-02-25T01:19:30.260Z,27.73
2023-02-25T01:20:30.312Z,27.70
2023-02-25T01:21:30.250Z,27.73
2023-02-25T01:22:30.234Z,27.71
2023-02-25T01:23:30.235Z,27.74
2023-02-25T01:24:30.224Z,27.67
2023-02-25T01:25:30.247Z,27.70
2023-02-25T01:26:30.211Z,27.70
2023-02-25T01:27:30.212Z,27.69
2023-02-25T01:28:30.186Z,27.70
2023-02-25T01:29:30.174Z,27.71
2023-02-25T01:30:30.183Z,27.64
2023-02-25T01:31:30.337Z,27.66
2023-02-25T01:32:30.284Z,27.66
2023-02-25T01:33:30.135Z,27.69
2023-02-25T01:34:30.144Z,27.62
2023-02-25T01:35:30.167Z,27.65
2023-02-25T01:36:30.113Z,27.57
2023-02-25T01:37:30.104Z,27.59
2023-02-25T01:38:30.089Z,27.62
2023-02-25T01:39:30.084Z,27.60
2023-02-25T01:40:30.125Z,27.63
2023-02-25T01:41:30.084Z,27.62
2023-02-25T01:42:30.068Z,27.58
2023-02-25T01:43:30.086Z,27.52
2023-02-25T01:44:30.045Z,27.49
2023-02-25T01:45:30.095Z,27.52
2023-02-25T01:46:30.139Z,27.42
2023-02-25T01:47:30.022Z,27.44
2023-02-25T01:48:30.016Z,27.42
2023-02-25T01:49:30.040Z,27.45
2023-02-25T01:50:30.039Z,27.39
2023-02-25T01:51:29.985Z,27.47
2023-02-25T01:52:29.977Z,27.49
2023-02-25T01:53:29.973Z,27.40
2023-02-25T01:54:29.961Z,27.49
2023-02-25T01:55:29.983Z,27.50
2023-02-25T01:56:29.959Z,27.39
2023-02-25T01:57:29.939Z,27.39
2023-02-25T01:58:29.948Z,27.36
2023-02-25T01:59:29.938Z,27.35
2023-02-25T02:00:30.020Z,27.28
2023-02-25T02:01:29.908Z,27.33
2023-02-25T02:02:29.952Z,27.29
2023-02-25T02:03:29.889Z,27.31
2023-02-25T02:04:29.901Z,27.29
2023-02-25T02:05:29.868Z,27.33
2023-02-25T02:06:29.894Z,27.26
2023-02-25T02:07:29.845Z,27.26
2023-02-25T02:08:29.850Z,27.21
2023-02-25T02:09:29.834Z,27.28
2023-02-25T02:10:29.817Z,27.21
2023-02-25T02:11:29.825Z,27.24
2023-02-25T02:12:29.810Z,27.26
2023-02-25T02:13:29.795Z,27.25
2023-02-25T02:14:29.812Z,27.22
2023-02-25T02:15:29.804Z,27.17
2023-02-25T02:16:29.822Z,27.19
2023-02-25T02:17:30.366Z,27.19
2023-02-25T02:18:29.759Z,27.19
2023-02-25T02:19:29.743Z,27.15
2023-02-25T02:20:29.888Z,27.21
2023-02-25T02:21:29.731Z,27.17
2023-02-25T02:22:29.715Z,27.15
2023-02-25T02:23:29.713Z,27.12
2023-02-25T02:24:29.696Z,27.14
2023-02-25T02:25:29.718Z,27.14
2023-02-25T02:26:29.685Z,27.12
2023-02-25T02:27:29.723Z,27.11
2023-02-25T02:28:29.662Z,27.14
2023-02-25T02:29:29.651Z,27.06
2023-02-25T02:30:29.702Z,27.14
2023-02-25T02:31:29.711Z,27.07
2023-02-25T02:32:29.710Z,27.12
2023-02-25T02:33:29.624Z,27.08
2023-02-25T02:34:29.622Z,27.11
2023-02-25T02:35:29.613Z,27.10
2023-02-25T02:36:29.594Z,27.14
2023-02-25T02:37:29.596Z,27.11
2023-02-25T02:38:29.576Z,27.12
2023-02-25T02:39:29.568Z,27.04
2023-02-25T02:40:29.558Z,27.07
2023-02-25T02:41:29.574Z,27.02
2023-02-25T02:42:29.551Z,27.10
2023-02-25T02:43:29.551Z,27.05
2023-02-25T02:44:29.523Z,27.05
2023-02-25T02:45:29.588Z,27.05
2023-02-25T02:46:29.507Z,27.04
2023-02-25T02:47:29.524Z,27.04
2023-02-25T02:48:29.546Z,27.07
2023-02-25T02:49:29.495Z,27.00
2023-02-25T02:50:29.477Z,27.02
2023-02-25T02:51:29.465Z,27.08
2023-02-25T02:52:29.453Z,27.02
2023-02-25T02:53:29.455Z,27.02
2023-02-25T02:54:29.445Z,26.94
2023-02-25T02:55:29.423Z,26.94
2023-02-25T02:56:29.420Z,27.01
2023-02-25T02:57:29.409Z,27.01
2023-02-25T02:58:29.424Z,27.05
2023-02-25T02:59:29.436Z,27.02
2023-02-25T03:00:29.377Z,27.01
2023-02-25T03:01:29.577Z,26.94
2023-02-25T03:02:29.363Z,26.98
2023-02-25T03:03:29.395Z,27.00
2023-02-25T03:04:29.352Z,26.97
2023-02-25T03:05:29.337Z,26.98
2023-02-25T03:06:29.325Z,26.95
2023-02-25T03:07:29.323Z,26.97
2023-02-25T03:08:29.309Z,26.95
2023-02-25T03:09:29.302Z,26.98
2023-02-25T03:10:29.306Z,27.00
2023-02-25T03:11:29.288Z,26.99
2023-02-25T03:12:29.275Z,26.95
2023-02-25T03:13:29.263Z,26.94
2023-02-25T03:14:29.272Z,26.94
2023-02-25T03:15:29.251Z,26.99
2023-02-25T03:16:29.286Z,26.95
2023-02-25T03:17:29.234Z,26.97
2023-02-25T03:18:29.224Z,26.96
2023-02-25T03:19:29.242Z,26.92
2023-02-25T03:20:29.218Z,26.98
2023-02-25T03:21:29.208Z,26.93
2023-02-25T03:22:29.196Z,26.96
2023-02-25T03:23:29.189Z,26.97
2023-02-25T03:24:29.177Z,26.94
2023-02-25T03:25:29.183Z,26.94
2023-02-25T03:26:29.168Z,26.90
2023-02-25T03:27:29.160Z,26.94
2023-02-25T03:28:29.141Z,26.98
2023-02-25T03:29:29.136Z,26.91
2023-02-25T03:30:29.191Z,26.92
2023-02-25T03:31:29.180Z,26.90
2023-02-25T03:32:29.244Z,26.92
2023-02-25T03:33:29.105Z,26.98
2023-02-25T03:34:29.098Z,26.94
2023-02-25T03:35:29.104Z,26.90
2023-02-25T03:36:29.073Z,26.84
2023-02-25T03:37:29.076Z,26.88
2023-02-25T03:38:29.073Z,26.90
2023-02-25T03:39:29.065Z,26.87
2023-02-25T03:40:29.075Z,26.92
2023-02-25T03:41:29.039Z,26.85
2023-02-25T03:42:29.024Z,26.81
2023-02-25T03:43:29.023Z,26.84
2023-02-25T03:44:29.003Z,26.85
2023-02-25T03:45:28.999Z,26.77
2023-02-25T03:46:29.014Z,26.82
2023-02-25T03:47:29.020Z,26.74
2023-02-25T03:48:28.981Z,26.75
2023-02-25T03:49:28.965Z,26.80
2023-02-25T03:50:28.959Z,26.80
2023-02-25T03:51:28.969Z,26.81
2023-02-25T03:52:28.936Z,26.82
2023-02-25T03:53:28.933Z,26.83
2023-02-25T03:54:28.924Z,26.79
2023-02-25T03:55:28.913Z,26.78
2023-02-25T03:56:28.902Z,26.78
2023-02-25T03:57:28.891Z,26.77
2023-02-25T03:58:28.879Z,26.73
2023-02-25T03:59:28.878Z,26.74
2023-02-25T04:00:28.865Z,26.71
2023-02-25T04:01:28.854Z,26.73
2023-02-25T04:02:28.905Z,26.72
2023-02-25T04:03:28.838Z,26.74
2023-02-25T04:04:28.940Z,26.74
2023-02-25T04:05:28.837Z,26.77
2023-02-25T04:06:28.823Z,26.77
2023-02-25T04:07:28.826Z,26.79
2023-02-25T04:08:28.798Z,26.75
2023-02-25T04:09:28.784Z,26.79
2023-02-25T04:10:28.793Z,26.78
2023-02-25T04:11:28.765Z,26.78
2023-02-25T04:12:28.756Z,26.77
2023-02-25T04:13:28.747Z,26.78
2023-02-25T04:14:28.736Z,26.78
2023-02-25T04:15:28.790Z,26.81
2023-02-25T04:16:28.724Z,26.75
2023-02-25T04:17:28.715Z,26.70
2023-02-25T04:18:28.697Z,26.73
2023-02-25T04:19:28.698Z,26.71
2023-02-25T04:20:28.684Z,26.70
2023-02-25T04:21:28.683Z,26.67
2023-02-25T04:22:28.673Z,26.67
2023-02-25T04:23:28.683Z,26.67
2023-02-25T04:24:28.649Z,26.66
2023-02-25T04:25:28.644Z,26.64
2023-02-25T04:26:28.632Z,26.64
2023-02-25T04:27:28.630Z,26.64
2023-02-25T04:28:28.615Z,26.67
2023-02-25T04:29:28.607Z,26.62
2023-02-25T04:30:28.616Z,26.60
2023-02-25T04:31:28.734Z,26.66
2023-02-25T04:32:28.739Z,26.64
2023-02-25T04:33:28.576Z,26.60
2023-02-25T04:34:28.565Z,26.60
2023-02-25T04:35:28.552Z,26.60
2023-02-25T04:36:28.553Z,26.62
2023-02-25T04:37:28.545Z,26.60
2023-02-25T04:38:28.537Z,26.60
2023-02-25T04:39:28.543Z,26.62
2023-02-25T04:40:28.509Z,26.56
2023-02-25T04:41:28.510Z,26.59
2023-02-25T04:42:28.498Z,26.63
2023-02-25T04:43:28.493Z,26.60
2023-02-25T04:44:28.478Z,26.60
2023-02-25T04:45:28.470Z,26.59
2023-02-25T04:46:28.543Z,26.58
2023-02-25T04:47:28.451Z,26.59
2023-02-25T04:48:28.447Z,26.57
2023-02-25T04:49:28.441Z,26.59
2023-02-25T04:50:28.445Z,26.61
2023-02-25T04:51:28.430Z,26.61
2023-02-25T04:52:28.418Z,26.57
2023-02-25T04:53:28.418Z,26.55
2023-02-25T04:54:28.412Z,26.56
2023-02-25T04:55:28.411Z,26.59
2023-02-25T04:56:28.378Z,26.61
2023-02-25T04:57:28.362Z,26.60
2023-02-25T04:58:28.358Z,26.59
2023-02-25T04:59:28.352Z,26.60
2023-02-25T05:00:28.344Z,26.60
2023-02-25T05:01:28.400Z,26.59
2023-02-25T05:02:28.320Z,26.59
2023-02-25T05:03:28.312Z,26.59
2023-02-25T05:04:28.460Z,26.56
2023-02-25T05:05:28.300Z,26.57
2023-02-25T05:06:28.286Z,26.60
2023-02-25T05:07:28.275Z,26.55
2023-02-25T05:08:28.273Z,26.57
2023-02-25T05:09:28.258Z,26.56
2023-02-25T05:10:28.252Z,26.55
2023-02-25T05:11:28.274Z,26.53
2023-02-25T05:12:28.237Z,26.56
2023-02-25T05:13:28.230Z,26.57
2023-02-25T05:14:28.221Z,26.53
2023-02-25T05:15:28.211Z,26.56
2023-02-25T05:16:28.317Z,26.57
2023-02-25T05:17:28.190Z,26.60
2023-02-25T05:18:28.226Z,26.60
2023-02-25T05:19:28.176Z,26.57
2023-02-25T05:20:28.191Z,26.56
2023-02-25T05:21:28.158Z,26.55
2023-02-25T05:22:28.159Z,26.59
2023-02-25T05:23:28.142Z,26.57
2023-02-25T05:24:28.132Z,26.53
2023-02-25T05:25:28.122Z,26.56
2023-02-25T05:26:28.115Z,26.56
2023-02-25T05:27:28.134Z,26.56
2023-02-25T05:28:28.113Z,26.55
2023-02-25T05:29:28.175Z,26.56
2023-02-25T05:30:28.087Z,26.53
2023-02-25T05:31:28.198Z,26.57
2023-02-25T05:32:28.236Z,26.55
2023-02-25T05:33:28.079Z,26.59
2023-02-25T05:34:28.048Z,26.55
2023-02-25T05:35:28.046Z,26.56
2023-02-25T05:36:28.565Z,26.59
2023-02-25T05:37:28.029Z,26.53
2023-02-25T05:38:28.015Z,26.54
2023-02-25T05:39:27.998Z,26.52
2023-02-25T05:40:28.041Z,26.54
2023-02-25T05:41:27.981Z,26.55
2023-02-25T05:42:28.009Z,26.54
2023-02-25T05:43:28.000Z,26.55
2023-02-25T05:44:27.967Z,26.54
2023-02-25T05:45:27.949Z,26.49
2023-02-25T05:46:28.285Z,26.52
2023-02-25T05:47:27.943Z,26.47
2023-02-25T05:48:27.921Z,26.50
2023-02-25T05:49:27.936Z,26.45
2023-02-25T05:50:27.906Z,26.42
2023-02-25T05:51:27.895Z,26.50
2023-02-25T05:52:27.890Z,26.49
2023-02-25T05:53:27.889Z,26.53
2023-02-25T05:54:27.867Z,26.47
2023-02-25T05:55:27.864Z,26.50
2023-02-25T05:56:30.219Z,26.50
2023-02-25T05:57:27.841Z,26.52
2023-02-25T05:58:27.835Z,26.48
2023-02-25T05:59:27.850Z,26.46
2023-02-25T06:00:27.820Z,26.46
2023-02-25T06:01:27.947Z,26.45
2023-02-25T06:02:27.835Z,26.53
2023-02-25T06:03:27.879Z,26.46
2023-02-25T06:04:27.781Z,26.46
2023-02-25T06:05:27.772Z,26.46
2023-02-25T06:06:27.769Z,26.45
2023-02-25T06:07:27.748Z,26.47
2023-02-25T06:08:27.741Z,26.45
2023-02-25T06:09:27.730Z,26.39
2023-02-25T06:10:27.807Z,26.45
2023-02-25T06:11:27.721Z,26.45
2023-02-25T06:12:27.707Z,26.39
2023-02-25T06:13:27.709Z,26.46
2023-02-25T06:14:27.691Z,26.40
2023-02-25T06:15:27.703Z,26.43
2023-02-25T06:16:27.744Z,26.42
2023-02-25T06:17:27.702Z,26.42
2023-02-25T06:18:27.651Z,26.42
2023-02-25T06:19:27.647Z,26.43
2023-02-25T06:20:27.635Z,26.37
2023-02-25T06:21:27.662Z,26.43
2023-02-25T06:22:27.621Z,26.39
2023-02-25T06:23:27.618Z,26.38
2023-02-25T06:24:27.601Z,26.43
2023-02-25T06:25:27.594Z,26.39
2023-02-25T06:26:27.598Z,26.39
2023-02-25T06:27:27.596Z,26.40
2023-02-25T06:28:27.571Z,26.38
2023-02-25T06:29:27.551Z,26.38
2023-02-25T06:30:27.569Z,26.43
2023-02-25T06:31:27.602Z,26.36
2023-02-25T06:32:27.660Z,26.38
2023-02-25T06:33:27.529Z,26.33
2023-02-25T06:34:27.515Z,26.38
2023-02-25T06:35:27.511Z,26.38
2023-02-25T06:36:27.607Z,26.33
2023-02-25T06:37:27.485Z,26.38
2023-02-25T06:38:27.476Z,26.35
2023-02-25T06:39:27.472Z,26.37
2023-02-25T06:40:27.459Z,26.36
2023-02-25T06:41:27.459Z,26.36
2023-02-25T06:42:27.444Z,26.38
2023-02-25T06:43:27.438Z,26.39
2023-02-25T06:44:27.425Z,26.37
2023-02-25T06:45:27.415Z,26.36
2023-02-25T06:46:27.948Z,26.35
2023-02-25T06:47:27.430Z,26.35
2023-02-25T06:48:27.395Z,26.32
2023-02-25T06:49:27.377Z,26.30
2023-02-25T06:50:27.382Z,26.35
2023-02-25T06:51:27.362Z,26.35
2023-02-25T06:52:27.355Z,26.33
2023-02-25T06:53:27.345Z,26.33
2023-02-25T06:54:27.338Z,25.27
2023-02-25T06:55:27.334Z,24.82
2023-02-25T06:56:27.314Z,24.89
2023-02-25T06:57:27.311Z,24.79
2023-02-25T06:58:27.303Z,25.12
2023-02-25T06:59:27.301Z,25.46
2023-02-25T07:00:27.307Z,25.81
2023-02-25T07:01:27.352Z,26.46
2023-02-25T07:02:27.271Z,26.72
2023-02-25T07:03:27.294Z,26.73
2023-02-25T07:04:27.303Z,26.79
2023-02-25T07:05:27.239Z,26.85
2023-02-25T07:06:27.229Z,26.82
2023-02-25T07:07:27.226Z,26.91
2023-02-25T07:08:27.213Z,26.94
2023-02-25T07:09:27.221Z,26.91
2023-02-25T07:10:27.192Z,26.99
2023-02-25T07:11:27.192Z,27.01
2023-02-25T07:12:27.183Z,27.01
2023-02-25T07:13:27.169Z,27.19
2023-02-25T07:14:27.155Z,27.22
2023-02-25T07:15:27.234Z,27.30
2023-02-25T07:16:27.138Z,27.33
2023-02-25T07:17:27.140Z,27.35
2023-02-25T07:18:27.155Z,27.40
2023-02-25T07:19:27.141Z,27.39
2023-02-25T07:20:27.114Z,27.46
2023-02-25T07:21:27.097Z,27.55
2023-02-25T07:22:27.091Z,27.61
2023-02-25T07:23:27.085Z,27.50
2023-02-25T07:24:27.068Z,27.58
2023-02-25T07:25:27.137Z,27.57
2023-02-25T07:26:27.089Z,27.65
2023-02-25T07:27:27.049Z,27.70
2023-02-25T07:28:27.046Z,27.84
2023-02-25T07:29:27.025Z,27.83
2023-02-25T07:30:27.017Z,27.93
2023-02-25T07:31:27.427Z,27.98
2023-02-25T07:32:27.189Z,28.02
2023-02-25T07:33:27.002Z,28.12
2023-02-25T07:34:26.997Z,28.22
2023-02-25T07:35:27.006Z,28.21
2023-02-25T07:36:26.969Z,28.24
2023-02-25T07:37:26.956Z,28.35
2023-02-25T07:38:26.950Z,28.40
2023-02-25T07:39:26.945Z,28.47
2023-02-25T07:40:26.936Z,28.54
2023-02-25T07:41:26.927Z,28.52
2023-02-25T07:42:26.917Z,28.59
2023-02-25T07:43:26.906Z,28.70
2023-02-25T07:44:26.899Z,28.73
2023-02-25T07:45:26.887Z,28.83
2023-02-25T07:46:26.995Z,28.89
2023-02-25T07:47:26.870Z,28.98
2023-02-25T07:48:26.866Z,28.93
2023-02-25T07:49:26.861Z,29.16
2023-02-25T07:50:26.850Z,29.13
2023-02-25T07:51:27.018Z,29.24
2023-02-25T07:52:26.837Z,29.26
2023-02-25T07:53:26.817Z,29.29
2023-02-25T07:54:26.810Z,27.13
2023-02-25T07:55:26.809Z,25.45
2023-02-25T07:56:26.816Z,25.32
2023-02-25T07:57:26.784Z,24.85
2023-02-25T07:58:26.776Z,25.53
2023-02-25T07:59:26.770Z,26.31
2023-02-25T08:00:26.760Z,26.73
2023-02-25T08:01:26.751Z,26.97
2023-02-25T08:02:26.792Z,28.27
2023-02-25T08:03:26.757Z,28.62
2023-02-25T08:04:26.794Z,28.98
2023-02-25T08:05:26.713Z,29.49
2023-02-25T08:06:26.705Z,30.18
2023-02-25T08:07:27.815Z,30.44
2023-02-25T08:08:26.697Z,30.77
2023-02-25T08:09:26.694Z,31.11
2023-02-25T08:10:26.688Z,31.25
2023-02-25T08:11:26.956Z,31.35
2023-02-25T08:12:26.652Z,31.33
2023-02-25T08:13:26.648Z,31.39
2023-02-25T08:14:26.633Z,31.40
2023-02-25T08:15:26.627Z,31.31
2023-02-25T08:16:26.620Z,31.28
2023-02-25T08:17:26.620Z,31.20
2023-02-25T08:18:26.646Z,31.02
2023-02-25T08:19:26.599Z,30.85
2023-02-25T08:20:26.585Z,30.81
2023-02-25T08:21:26.861Z,30.74
2023-02-25T08:22:26.567Z,30.61
2023-02-25T08:23:26.626Z,30.56
2023-02-25T08:24:26.569Z,30.25
2023-02-25T08:25:26.538Z,30.14
2023-02-25T08:26:26.531Z,30.04
2023-02-25T08:27:26.525Z,29.90
2023-02-25T08:28:26.514Z,29.82
2023-02-25T08:29:26.501Z,29.72
2023-02-25T08:30:26.555Z,29.61
2023-02-25T08:31:27.023Z,29.55
2023-02-25T08:32:26.675Z,29.40
2023-02-25T08:33:26.480Z,29.44
2023-02-25T08:34:26.466Z,29.29
2023-02-25T08:35:26.446Z,29.30
2023-02-25T08:36:26.440Z,29.25
2023-02-25T08:37:26.433Z,29.20
2023-02-25T08:38:26.444Z,29.12
2023-02-25T08:39:26.450Z,29.15
2023-02-25T08:40:26.462Z,29.11
2023-02-25T08:41:26.625Z,29.04
2023-02-25T08:42:26.389Z,29.09
2023-02-25T08:43:26.410Z,29.08
2023-02-25T08:44:26.375Z,29.07
2023-02-25T08:45:26.364Z,29.09
2023-02-25T08:46:26.396Z,29.08
2023-02-25T08:47:26.341Z,29.13
2023-02-25T08:48:26.335Z,29.19
2023-02-25T08:49:26.337Z,29.19
2023-02-25T08:50:26.335Z,29.21
2023-02-25T08:51:26.573Z,29.12
2023-02-25T08:52:26.307Z,29.12
2023-02-25T08:53:26.293Z,29.21
2023-02-25T08:54:26.292Z,29.22
2023-02-25T08:55:26.298Z,29.34
2023-02-25T08:56:26.261Z,29.34
2023-02-25T08:57:26.253Z,29.34
2023-02-25T08:58:26.254Z,29.36
2023-02-25T08:59:26.237Z,29.33
2023-02-25T09:00:26.371Z,29.42
2023-02-25T09:01:26.629Z,29.49
2023-02-25T09:02:26.210Z,29.53
2023-02-25T09:03:26.242Z,29.69
2023-02-25T09:04:26.301Z,29.65
2023-02-25T09:05:26.253Z,29.76
2023-02-25T09:06:26.174Z,29.86
2023-02-25T09:07:26.167Z,29.78
2023-02-25T09:08:26.165Z,29.93
2023-02-25T09:09:26.149Z,29.91
2023-02-25T09:10:26.141Z,29.98
2023-02-25T09:11:26.504Z,29.99
2023-02-25T09:12:26.123Z,30.11
2023-02-25T09:13:26.721Z,30.14
2023-02-25T09:14:26.112Z,30.25
2023-02-25T09:15:26.095Z,30.30
2023-02-25T09:16:26.126Z,30.31
2023-02-25T09:17:26.084Z,30.38
2023-02-25T09:18:26.071Z,30.42
2023-02-25T09:19:26.065Z,30.46
2023-02-25T09:20:26.071Z,30.55
2023-02-25T09:21:26.205Z,30.51
2023-02-25T09:22:26.033Z,30.53
2023-02-25T09:23:26.028Z,30.69
2023-02-25T09:24:26.237Z,30.80
2023-02-25T09:25:26.011Z,30.74
2023-02-25T09:26:26.017Z,30.42
2023-02-25T09:27:26.033Z,30.32
2023-02-25T09:28:25.983Z,29.61
2023-02-25T09:29:25.979Z,28.94
2023-02-25T09:30:25.967Z,29.15
2023-02-25T09:31:26.483Z,29.32
2023-02-25T09:32:26.127Z,30.13
2023-02-25T09:33:25.949Z,30.30
2023-02-25T09:34:25.933Z,30.38
2023-02-25T09:35:25.919Z,30.41
2023-02-25T09:36:25.914Z,30.50
2023-02-25T09:37:25.918Z,30.50
2023-02-25T09:38:25.894Z,30.57
2023-02-25T09:39:25.888Z,30.67
2023-02-25T09:40:25.882Z,30.69
2023-02-25T09:41:25.868Z,30.80
2023-02-25T09:42:25.865Z,30.95
2023-02-25T09:43:25.875Z,31.05
2023-02-25T09:44:25.846Z,31.09
2023-02-25T09:45:25.836Z,31.19
2023-02-25T09:46:25.832Z,31.32
2023-02-25T09:47:25.874Z,31.34
2023-02-25T09:48:25.815Z,31.37
2023-02-25T09:49:25.797Z,31.32
2023-02-25T09:50:25.816Z,31.49
2023-02-25T09:51:25.948Z,31.66
2023-02-25T09:52:25.776Z,31.58
2023-02-25T09:53:25.774Z,31.84
2023-02-25T09:54:25.754Z,31.72
2023-02-25T09:55:25.745Z,31.87
2023-02-25T09:56:25.744Z,31.96
2023-02-25T09:57:25.740Z,32.03
2023-02-25T09:58:25.742Z,32.10
2023-02-25T09:59:25.739Z,32.09
2023-02-25T10:00:25.709Z,32.13
2023-02-25T10:01:25.694Z,32.27
2023-02-25T10:02:25.861Z,32.30
2023-02-25T10:03:25.703Z,32.29
2023-02-25T10:04:25.669Z,32.44
2023-02-25T10:05:25.665Z,32.51
2023-02-25T10:06:25.658Z,32.55
2023-02-25T10:07:25.649Z,32.67
2023-02-25T10:08:25.645Z,32.75
2023-02-25T10:09:25.634Z,32.79
2023-02-25T10:10:25.621Z,32.81
2023-02-25T10:11:25.734Z,32.95
2023-02-25T10:12:25.605Z,32.97
2023-02-25T10:13:25.594Z,32.98
2023-02-25T10:14:25.593Z,33.00
2023-02-25T10:15:25.627Z,33.24
2023-02-25T10:16:25.602Z,33.26
2023-02-25T10:17:25.558Z,33.26
2023-02-25T10:18:25.551Z,33.21
2023-02-25T10:19:25.569Z,33.34
2023-02-25T10:20:25.532Z,33.35
2023-02-25T10:21:25.912Z,33.57
2023-02-25T10:22:25.516Z,33.57
2023-02-25T10:23:25.503Z,33.68
2023-02-25T10:24:25.501Z,33.63
2023-02-25T10:25:25.483Z,33.76
2023-02-25T10:26:25.480Z,33.71
2023-02-25T10:27:25.466Z,33.86
2023-02-25T10:28:25.460Z,33.84
2023-02-25T10:29:25.456Z,33.87
2023-02-25T10:30:25.458Z,32.95
2023-02-25T10:31:26.018Z,31.89
2023-02-25T10:32:25.576Z,30.78
2023-02-25T10:33:25.428Z,30.05
2023-02-25T10:34:25.410Z,30.45
2023-02-25T10:35:25.413Z,30.57
2023-02-25T10:36:25.391Z,29.87
2023-02-25T10:37:25.383Z,29.55
2023-02-25T10:38:25.386Z,28.80
2023-02-25T10:39:25.372Z,28.80
2023-02-25T10:40:25.364Z,30.09
2023-02-25T10:41:25.653Z,28.21
2023-02-25T10:42:25.336Z,29.73
2023-02-25T10:43:25.333Z,30.41
2023-02-25T10:44:25.319Z,30.52
2023-02-25T10:45:25.319Z,30.57
2023-02-25T10:46:25.328Z,30.78
2023-02-25T10:47:25.315Z,30.75
2023-02-25T10:48:25.282Z,30.76
2023-02-25T10:49:25.317Z,30.85
2023-02-25T10:50:35.689Z,31.00
2023-02-25T10:51:25.757Z,31.07
2023-02-25T10:52:25.244Z,31.18
2023-02-25T10:53:25.241Z,31.27
2023-02-25T10:54:25.235Z,31.55
2023-02-25T10:55:25.219Z,31.53
2023-02-25T10:56:25.278Z,31.61
2023-02-25T10:57:25.218Z,31.61
2023-02-25T10:58:25.207Z,31.84
2023-02-25T10:59:25.195Z,31.85
2023-02-25T11:00:25.173Z,31.86
2023-02-25T11:01:25.498Z,32.00
2023-02-25T11:02:25.196Z,32.04
2023-02-25T11:03:25.878Z,32.08
2023-02-25T11:04:25.137Z,32.18
2023-02-25T11:05:25.132Z,32.31
2023-02-25T11:06:25.127Z,32.31
2023-02-25T11:07:25.138Z,32.53
2023-02-25T11:08:25.105Z,32.56
2023-02-25T11:09:25.100Z,32.59
2023-02-25T11:10:25.086Z,32.70
2023-02-25T11:11:25.445Z,32.93
2023-02-25T11:12:25.075Z,33.05
2023-02-25T11:13:25.065Z,33.02
2023-02-25T11:14:25.051Z,33.31
2023-02-25T11:15:34.697Z,33.28
2023-02-25T11:16:25.070Z,33.28
2023-02-25T11:17:25.027Z,33.32
2023-02-25T11:18:25.026Z,33.36
2023-02-25T11:19:25.034Z,33.50
2023-02-25T11:20:25.001Z,33.41
2023-02-25T11:21:25.401Z,33.58
2023-02-25T11:22:24.983Z,33.55
2023-02-25T11:23:27.847Z,33.61
2023-02-25T11:24:24.964Z,33.68
2023-02-25T11:25:24.957Z,33.74
2023-02-25T11:26:24.948Z,33.74
2023-02-25T11:27:24.942Z,33.81
2023-02-25T11:28:24.934Z,33.91
2023-02-25T11:29:24.978Z,33.98
2023-02-25T11:30:24.927Z,34.05
2023-02-25T11:31:25.423Z,34.18
2023-02-25T11:32:25.028Z,34.07
2023-02-25T11:33:24.894Z,34.11
2023-02-25T11:34:24.873Z,34.14
2023-02-25T11:35:24.897Z,34.19
2023-02-25T11:36:25.362Z,34.15
2023-02-25T11:37:24.847Z,34.29
2023-02-25T11:38:24.838Z,34.26
2023-02-25T11:39:24.834Z,34.31
2023-02-25T11:40:24.830Z,34.36
2023-02-25T11:41:25.201Z,34.36
2023-02-25T11:42:24.818Z,33.69
2023-02-25T11:43:24.815Z,32.39
2023-02-25T11:44:24.783Z,32.61
2023-02-25T11:45:24.774Z,32.48
2023-02-25T11:46:25.239Z,32.19
2023-02-25T11:47:24.781Z,32.91
2023-02-25T11:48:24.752Z,33.16
2023-02-25T11:49:24.746Z,33.41
2023-02-25T11:50:24.731Z,32.74
2023-02-25T11:51:24.746Z,31.37
2023-02-25T11:52:24.708Z,30.09
2023-02-25T11:53:24.797Z,29.56
2023-02-25T11:54:24.700Z,30.02
2023-02-25T11:55:24.686Z,29.51
2023-02-25T11:56:25.177Z,28.54
2023-02-25T11:57:24.673Z,28.90
2023-02-25T11:58:24.656Z,29.80
2023-02-25T11:59:24.645Z,28.61
2023-02-25T12:00:24.661Z,28.87
2023-02-25T12:01:24.632Z,27.85
2023-02-25T12:02:24.759Z,28.13
2023-02-25T12:03:24.631Z,27.88
2023-02-25T12:04:24.602Z,27.68
2023-02-25T12:05:24.652Z,27.55
2023-02-25T12:06:24.934Z,27.44
2023-02-25T12:07:24.608Z,27.27
2023-02-25T12:08:24.566Z,26.72
2023-02-25T12:09:24.580Z,26.94
2023-02-25T12:10:24.555Z,27.01
2023-02-25T12:11:24.539Z,26.80
2023-02-25T12:12:24.535Z,26.90
2023-02-25T12:13:24.558Z,27.01
2023-02-25T12:14:24.516Z,26.79
2023-02-25T12:15:24.505Z,27.02
2023-02-25T12:16:24.988Z,27.01
2023-02-25T12:17:24.493Z,26.86
2023-02-25T12:18:24.512Z,27.04
2023-02-25T12:19:24.472Z,26.76
2023-02-25T12:20:24.470Z,26.66
2023-02-25T12:21:24.805Z,26.73
2023-02-25T12:22:24.447Z,26.11
2023-02-25T12:23:24.461Z,26.34
2023-02-25T12:24:24.426Z,26.64
2023-02-25T12:25:24.435Z,27.26
2023-02-25T12:26:24.408Z,27.31
2023-02-25T12:27:24.409Z,27.38
2023-02-25T12:28:24.393Z,27.38
2023-02-25T12:29:24.386Z,27.37
2023-02-25T12:30:24.369Z,27.35
2023-02-25T12:31:24.792Z,27.34
2023-02-25T12:32:24.491Z,27.34
2023-02-25T12:33:24.353Z,27.34
2023-02-25T12:34:24.341Z,27.34
2023-02-25T12:35:24.331Z,27.31
2023-02-25T12:36:24.321Z,27.34
2023-02-25T12:37:24.314Z,27.34
2023-02-25T12:38:24.306Z,27.33
2023-02-25T12:39:24.345Z,27.36
2023-02-25T12:40:24.290Z,27.36
2023-02-25T12:41:24.664Z,27.34
2023-02-25T12:42:24.267Z,27.37
2023-02-25T12:43:24.263Z,27.37
2023-02-25T12:44:24.245Z,27.36
2023-02-25T12:45:24.239Z,27.36
2023-02-25T12:46:24.231Z,27.33
2023-02-25T12:47:24.229Z,27.25
2023-02-25T12:48:24.220Z,27.23
2023-02-25T12:49:24.201Z,27.25
2023-02-25T12:50:24.196Z,27.26
2023-02-25T12:51:24.509Z,27.26
2023-02-25T12:52:24.176Z,27.25
2023-02-25T12:53:24.170Z,27.23
2023-02-25T12:54:24.164Z,27.23
2023-02-25T12:55:24.188Z,27.25
2023-02-25T12:56:24.150Z,27.25
2023-02-25T12:57:24.135Z,27.28
2023-02-25T12:58:24.141Z,27.20
2023-02-25T12:59:24.129Z,27.24
2023-02-25T13:00:24.111Z,27.18
2023-02-25T13:01:24.572Z,27.23
2023-02-25T13:02:24.097Z,27.24
2023-02-25T13:03:24.084Z,27.26
2023-02-25T13:04:24.075Z,27.32
2023-02-25T13:05:24.061Z,27.29
2023-02-25T13:06:24.068Z,27.27
2023-02-25T13:07:24.045Z,27.28
2023-02-25T13:08:24.039Z,27.34
2023-02-25T13:09:24.079Z,27.33
2023-02-25T13:10:24.044Z,27.36
2023-02-25T13:11:24.278Z,27.35
2023-02-25T13:12:24.027Z,27.36
2023-02-25T13:13:23.995Z,27.33
2023-02-25T13:14:24.010Z,27.35
2023-02-25T13:15:23.993Z,27.35
2023-02-25T13:16:24.070Z,27.32
2023-02-25T13:17:23.957Z,27.35
2023-02-25T13:18:23.976Z,27.32
2023-02-25T13:19:23.947Z,27.32
2023-02-25T13:20:23.942Z,27.32
2023-02-25T13:21:24.181Z,27.36
2023-02-25T13:22:23.912Z,27.34
2023-02-25T13:23:23.938Z,27.33
2023-02-25T13:24:23.900Z,27.35
2023-02-25T13:25:23.893Z,27.34
2023-02-25T13:26:23.880Z,27.32
2023-02-25T13:27:23.900Z,27.34
2023-02-25T13:28:23.857Z,27.33
2023-02-25T13:29:23.852Z,27.33
2023-02-25T13:30:23.845Z,27.29
2023-02-25T13:31:24.281Z,27.33
2023-02-25T13:32:24.007Z,27.32
2023-02-25T13:33:23.816Z,27.32
2023-02-25T13:34:23.808Z,27.37
2023-02-25T13:35:23.796Z,27.35
2023-02-25T13:36:23.796Z,27.37
2023-02-25T13:37:23.795Z,27.36
2023-02-25T13:38:23.778Z,27.40
2023-02-25T13:39:23.770Z,27.38
2023-02-25T13:40:26.063Z,27.37